createdAt,value
2022-12-12T00:00:41.993Z,64.36
2022-12-12T00:03:08.727Z,64.69
2022-12-12T00:05:35.434Z,64.68
2022-12-12T00:08:02.094Z,64.60
2022-12-12T00:10:28.656Z,64.72
2022-12-12T00:12:55.338Z,64.75
2022-12-12T00:15:21.919Z,64.81
2022-12-12T00:17:48.378Z,64.63
2022-12-12T00:20:14.989Z,64.87
2022-12-12T00:22:41.525Z,64.61
2022-12-12T00:25:08.716Z,64.54
2022-12-12T00:27:35.255Z,64.55
2022-12-12T00:30:02.158Z,64.23
2022-12-12T00:32:28.695Z,64.53
2022-12-12T00:34:55.200Z,64.72
2022-12-12T00:37:21.700Z,64.67
2022-12-12T00:39:48.272Z,64.67
2022-12-12T00:42:14.961Z,64.55
2022-12-12T00:44:41.453Z,64.64
2022-12-12T00:47:08.087Z,64.80
2022-12-12T00:49:34.691Z,64.65
2022-12-12T00:52:01.338Z,64.71
2022-12-12T00:54:28.135Z,64.64
2022-12-12T00:56:54.637Z,64.73
2022-12-12T00:59:21.270Z,64.47
2022-12-12T01:01:47.825Z,64.61
2022-12-12T01:04:14.953Z,64.55
2022-12-12T01:06:41.489Z,64.65
2022-12-12T01:09:08.037Z,64.50
2022-12-12T01:11:34.789Z,64.31
2022-12-12T01:14:01.656Z,64.23
2022-12-12T01:16:29.401Z,64.23
2022-12-12T01:18:56.129Z,64.13
2022-12-12T01:21:23.363Z,64.16
2022-12-12T01:23:49.997Z,64.25
2022-12-12T01:26:20.311Z,63.80
2022-12-12T01:28:46.865Z,64.33
2022-12-12T01:31:14.066Z,64.00
2022-12-12T01:33:42.177Z,64.06
2022-12-12T01:36:08.631Z,63.54
2022-12-12T01:38:35.134Z,64.09
2022-12-12T01:41:01.720Z,63.79
2022-12-12T01:43:28.716Z,64.01
2022-12-12T01:45:55.810Z,64.26
2022-12-12T01:48:25.799Z,64.15
2022-12-12T01:50:53.320Z,64.39
2022-12-12T01:53:20.918Z,64.48
2022-12-12T01:55:49.380Z,64.50
2022-12-12T01:58:16.982Z,64.55
2022-12-12T02:00:43.917Z,64.37
2022-12-12T02:03:10.745Z,64.34
2022-12-12T02:05:41.725Z,64.07
2022-12-12T02:08:10.408Z,64.39
2022-12-12T02:10:37.489Z,64.62
2022-12-12T02:13:11.706Z,63.85
2022-12-12T02:16:10.076Z,63.52
2022-12-12T02:18:44.630Z,63.44
2022-12-12T02:21:23.046Z,63.80
2022-12-12T02:24:13.608Z,63.03
2022-12-12T02:27:04.163Z,63.33
2022-12-12T02:30:07.673Z,63.59
2022-12-12T02:32:52.430Z,63.26
2022-12-12T02:35:43.387Z,63.78
2022-12-12T02:38:27.775Z,63.47
2022-12-12T02:41:21.165Z,62.75
2022-12-12T02:43:54.787Z,63.64
2022-12-12T02:46:31.755Z,63.47
2022-12-12T02:49:32.939Z,63.03
2022-12-12T02:52:01.108Z,64.07
2022-12-12T02:54:28.175Z,64.15
2022-12-12T02:56:58.159Z,64.19
2022-12-12T02:59:40.023Z,63.11
2022-12-12T03:02:22.668Z,63.44
2022-12-12T03:04:57.748Z,62.84
2022-12-12T03:07:52.797Z,63.17
2022-12-12T03:10:28.216Z,63.68
2022-12-12T03:13:25.843Z,62.97
2022-12-12T03:16:05.601Z,63.01
2022-12-12T03:18:35.073Z,63.69
2022-12-12T03:21:08.168Z,63.48
2022-12-12T03:23:39.891Z,63.21
2022-12-12T03:26:19.431Z,62.61
2022-12-12T03:28:54.532Z,62.90
2022-12-12T03:31:26.233Z,63.17
2022-12-12T03:34:19.495Z,62.24
2022-12-12T03:36:54.346Z,62.23
2022-12-12T03:39:27.069Z,63.01
2022-12-12T03:42:19.335Z,62.06
2022-12-12T03:44:55.468Z,62.32
2022-12-12T03:47:30.005Z,62.50
2022-12-12T03:50:09.557Z,62.08
2022-12-12T03:52:52.949Z,62.21
2022-12-12T03:55:26.727Z,62.30
2022-12-12T03:58:08.520Z,62.27
2022-12-12T04:00:37.782Z,62.86
2022-12-12T04:03:18.192Z,62.02
2022-12-12T04:06:07.675Z,63.16
2022-12-12T04:08:35.084Z,63.18
2022-12-12T04:11:07.902Z,62.61
2022-12-12T04:13:59.187Z,62.15
2022-12-12T04:16:33.171Z,62.49
2022-12-12T04:19:11.896Z,62.18
2022-12-12T04:21:53.514Z,63.19
2022-12-12T04:24:25.706Z,62.72
2022-12-12T04:27:02.241Z,62.60
2022-12-12T04:29:38.813Z,62.03
2022-12-12T04:32:27.135Z,62.72
2022-12-12T04:35:05.470Z,63.00
2022-12-12T04:37:36.071Z,63.04
2022-12-12T04:40:07.369Z,63.15
2022-12-12T04:42:40.933Z,63.12
2022-12-12T04:45:20.372Z,63.28
2022-12-12T04:47:50.088Z,63.23
2022-12-12T04:50:19.276Z,63.20
2022-12-12T04:52:48.796Z,63.08
2022-12-12T04:55:31.252Z,62.09
2022-12-12T04:57:58.036Z,63.36
2022-12-12T05:00:30.082Z,63.51
2022-12-12T05:03:21.216Z,62.52
2022-12-12T05:05:53.793Z,62.91
2022-12-12T05:08:31.012Z,62.65
2022-12-12T05:11:01.370Z,63.08
2022-12-12T05:13:32.950Z,63.19
2022-12-12T05:16:02.070Z,63.64
2022-12-12T05:18:28.565Z,63.62
2022-12-12T05:20:55.048Z,63.61
2022-12-12T05:23:21.702Z,63.58
2022-12-12T05:25:48.216Z,63.71
2022-12-12T05:28:14.866Z,63.58
2022-12-12T05:30:41.399Z,63.69
2022-12-12T05:33:08.145Z,63.48
2022-12-12T05:35:34.694Z,63.35
2022-12-12T05:38:01.816Z,63.33
2022-12-12T05:40:28.493Z,63.31
2022-12-12T05:42:54.961Z,63.38
2022-12-12T05:45:21.549Z,63.38
2022-12-12T05:47:48.042Z,63.39
2022-12-12T05:50:14.791Z,63.41
2022-12-12T05:52:41.295Z,63.40
2022-12-12T05:55:07.973Z,63.06
2022-12-12T05:57:34.582Z,63.24
2022-12-12T06:00:01.141Z,63.05
2022-12-12T06:02:27.708Z,63.15
2022-12-12T06:04:54.213Z,63.25
2022-12-12T06:07:20.682Z,63.30
2022-12-12T06:09:47.271Z,62.96
2022-12-12T06:12:13.805Z,63.17
2022-12-12T06:14:40.304Z,63.29
2022-12-12T06:17:06.821Z,63.22
2022-12-12T06:19:33.531Z,63.55
2022-12-12T06:22:00.917Z,63.28
2022-12-12T06:24:27.429Z,63.44
2022-12-12T06:26:53.991Z,63.56
2022-12-12T06:29:20.642Z,63.24
2022-12-12T06:31:47.182Z,63.01
2022-12-12T06:34:13.659Z,62.90
2022-12-12T06:36:40.208Z,63.34
2022-12-12T06:39:07.158Z,63.25
2022-12-12T06:41:33.751Z,63.06
2022-12-12T06:44:00.644Z,63.20
2022-12-12T06:46:29.079Z,63.11
2022-12-12T06:48:56.663Z,63.18
2022-12-12T06:51:28.949Z,62.68
2022-12-12T06:53:56.084Z,63.06
2022-12-12T06:56:24.494Z,63.10
2022-12-12T06:58:51.578Z,63.15
2022-12-12T07:01:20.319Z,62.85
2022-12-12T07:03:48.315Z,62.81
2022-12-12T07:06:15.528Z,60.44
2022-12-12T07:08:42.033Z,62.44
2022-12-12T07:11:13.442Z,62.17
2022-12-12T07:13:40.139Z,62.45
2022-12-12T07:16:07.528Z,62.55
2022-12-12T07:18:34.341Z,62.64
2022-12-12T07:21:04.866Z,61.96
2022-12-12T07:23:31.715Z,62.54
2022-12-12T07:25:58.849Z,62.60
2022-12-12T07:28:25.405Z,62.52
2022-12-12T07:30:51.964Z,62.75
2022-12-12T07:33:18.535Z,62.61
2022-12-12T07:35:45.204Z,62.78
2022-12-12T07:38:12.218Z,62.94
2022-12-12T07:40:39.305Z,62.90
2022-12-12T07:43:05.783Z,62.91
2022-12-12T07:45:32.587Z,63.13
2022-12-12T07:47:59.156Z,62.71
2022-12-12T07:50:25.703Z,62.98
2022-12-12T07:52:52.182Z,63.17
2022-12-12T07:55:18.671Z,63.06
2022-12-12T07:57:45.346Z,63.29
2022-12-12T08:00:12.668Z,62.99
2022-12-12T08:02:39.658Z,62.90
2022-12-12T08:05:06.673Z,62.73
2022-12-12T08:07:33.667Z,62.71
2022-12-12T08:10:00.399Z,62.30
2022-12-12T08:12:29.719Z,61.49
2022-12-12T08:14:56.330Z,62.12
2022-12-12T08:17:23.150Z,61.77
2022-12-12T08:19:49.734Z,61.88
2022-12-12T08:22:16.214Z,61.98
2022-12-12T08:24:42.784Z,62.08
2022-12-12T08:27:15.160Z,61.67
2022-12-12T08:29:43.357Z,61.64
2022-12-12T08:32:09.997Z,61.74
2022-12-12T08:34:38.958Z,61.00
2022-12-12T08:37:05.554Z,61.56
2022-12-12T08:39:32.020Z,61.65
2022-12-12T08:41:58.496Z,61.76
2022-12-12T08:44:25.124Z,61.60
2022-12-12T08:46:51.764Z,61.71
2022-12-12T08:49:18.483Z,61.92
2022-12-12T08:51:45.044Z,61.92
2022-12-12T08:54:13.131Z,61.58
2022-12-12T08:56:40.623Z,61.94
2022-12-12T08:59:07.249Z,61.75
2022-12-12T09:01:33.862Z,61.85
2022-12-12T09:04:01.773Z,61.71
2022-12-12T09:06:28.482Z,61.82
2022-12-12T09:08:56.598Z,61.83
2022-12-12T09:11:23.547Z,61.92
2022-12-12T09:13:51.387Z,61.67
2022-12-12T09:16:18.840Z,61.79
2022-12-12T09:18:49.075Z,61.75
2022-12-12T09:21:16.479Z,61.84
2022-12-12T09:23:42.975Z,61.61
2022-12-12T09:26:10.815Z,61.86
2022-12-12T09:28:37.877Z,62.00
2022-12-12T09:31:08.852Z,60.91
2022-12-12T09:33:35.807Z,61.84
2022-12-12T09:36:04.814Z,61.86
2022-12-12T09:38:31.583Z,62.16
2022-12-12T09:41:02.109Z,61.81
2022-12-12T09:43:39.072Z,60.36
2022-12-12T09:46:15.999Z,60.62
2022-12-12T09:48:45.894Z,61.45
2022-12-12T09:51:13.630Z,62.14
2022-12-12T09:53:44.037Z,61.84
2022-12-12T09:56:56.572Z,60.66
2022-12-12T09:59:32.295Z,60.75
2022-12-12T10:02:20.391Z,60.45
2022-12-12T10:05:07.763Z,60.80
2022-12-12T10:07:58.175Z,60.73
2022-12-12T10:10:33.749Z,61.11
2022-12-12T10:13:02.696Z,61.99
2022-12-12T10:15:40.175Z,60.85
2022-12-12T10:18:12.679Z,61.67
2022-12-12T10:20:48.318Z,61.10
2022-12-12T10:23:37.203Z,60.45
2022-12-12T10:26:07.216Z,62.12
2022-12-12T10:28:35.560Z,61.88
2022-12-12T10:31:39.625Z,60.44
2022-12-12T10:34:31.621Z,60.70
2022-12-12T10:37:25.676Z,59.57
2022-12-12T10:40:01.147Z,61.07
2022-12-12T10:42:39.675Z,60.72
2022-12-12T10:45:24.047Z,60.96
2022-12-12T10:47:51.034Z,62.56
2022-12-12T10:50:31.458Z,60.19
2022-12-12T10:52:57.937Z,62.34
2022-12-12T10:55:37.201Z,60.13
2022-12-12T10:58:04.998Z,62.13
2022-12-12T11:00:38.531Z,61.17
2022-12-12T11:03:23.633Z,59.42
2022-12-12T11:05:50.837Z,61.76
2022-12-12T11:08:32.189Z,59.06
2022-12-12T11:11:00.198Z,61.10
2022-12-12T11:13:27.049Z,58.73
2022-12-12T11:15:57.907Z,59.76
2022-12-12T11:18:25.545Z,61.13
2022-12-12T11:21:08.585Z,58.60
2022-12-12T11:23:39.847Z,60.65
2022-12-12T11:26:13.810Z,59.58
2022-12-12T11:28:42.158Z,61.02
2022-12-12T11:31:11.785Z,60.83
2022-12-12T11:33:45.990Z,60.75
2022-12-12T11:36:19.105Z,60.47
2022-12-12T11:38:49.246Z,60.25
2022-12-12T11:41:15.945Z,60.84
2022-12-12T11:43:45.427Z,59.38
2022-12-12T11:46:15.002Z,59.90
2022-12-12T11:48:55.352Z,59.10
2022-12-12T11:51:41.571Z,58.55
2022-12-12T11:54:14.359Z,58.66
2022-12-12T11:56:50.073Z,58.32
2022-12-12T11:59:40.638Z,57.27
2022-12-12T12:02:37.583Z,56.29
2022-12-12T12:05:22.676Z,59.68
2022-12-12T12:08:09.850Z,57.57
2022-12-12T12:11:07.239Z,57.56
2022-12-12T12:13:39.982Z,60.19
2022-12-12T12:16:37.805Z,57.04
2022-12-12T12:19:33.369Z,56.90
2022-12-12T12:22:18.666Z,59.78
2022-12-12T12:24:53.148Z,59.69
2022-12-12T12:27:24.911Z,58.43
2022-12-12T12:29:57.319Z,59.88
2022-12-12T12:32:49.941Z,57.99
2022-12-12T12:35:27.780Z,55.76
2022-12-12T12:37:54.222Z,55.08
2022-12-12T12:40:52.233Z,55.37
2022-12-12T12:43:24.842Z,58.74
2022-12-12T12:46:11.686Z,55.26
2022-12-12T12:48:43.553Z,57.97
2022-12-12T12:51:26.899Z,55.94
2022-12-12T12:54:04.843Z,56.43
2022-12-12T12:56:33.940Z,56.40
2022-12-12T12:59:09.318Z,58.07
2022-12-12T13:01:43.327Z,56.74
2022-12-12T13:04:20.211Z,58.13
2022-12-12T13:06:52.582Z,58.91
2022-12-12T13:09:29.786Z,56.66
2022-12-12T13:12:29.253Z,54.83
2022-12-12T13:15:02.856Z,56.40
2022-12-12T13:18:10.486Z,55.39
2022-12-12T13:20:49.987Z,56.13
2022-12-12T13:23:30.868Z,54.26
2022-12-12T13:26:12.944Z,54.43
2022-12-12T13:28:46.102Z,56.82
2022-12-12T13:31:21.561Z,56.20
2022-12-12T13:33:53.527Z,56.78
2022-12-12T13:36:30.027Z,56.11
2022-12-12T13:39:00.859Z,57.04
2022-12-12T13:41:27.440Z,58.07
2022-12-12T13:44:00.019Z,55.49
2022-12-12T13:46:26.609Z,57.87
2022-12-12T13:49:14.256Z,54.32
2022-12-12T13:51:42.955Z,57.28
2022-12-12T13:54:13.167Z,58.12
2022-12-12T13:56:44.829Z,56.66
2022-12-12T13:59:23.366Z,55.29
2022-12-12T14:01:58.882Z,56.72
2022-12-12T14:04:42.881Z,55.55
2022-12-12T14:07:12.513Z,57.34
2022-12-12T14:09:48.747Z,57.56
2022-12-12T14:12:21.386Z,57.90
2022-12-12T14:15:05.204Z,57.25
2022-12-12T14:17:41.840Z,57.55
2022-12-12T14:20:25.174Z,56.94
2022-12-12T14:22:51.610Z,58.11
2022-12-12T14:25:33.317Z,56.27
2022-12-12T14:28:02.685Z,58.14
2022-12-12T14:30:44.991Z,56.45
2022-12-12T14:33:17.236Z,57.91
2022-12-12T14:35:43.664Z,58.88
2022-12-12T14:38:41.390Z,57.46
2022-12-12T14:41:19.316Z,57.51
2022-12-12T14:44:35.428Z,58.13
2022-12-12T14:46:42.434Z,58.04
2022-12-12T14:49:17.483Z,57.88
2022-12-12T14:51:46.799Z,58.44
2022-12-12T14:54:19.068Z,58.00
2022-12-12T14:56:53.033Z,58.40
2022-12-12T14:59:29.714Z,57.98
2022-12-12T15:02:23.499Z,58.08
2022-12-12T15:05:04.206Z,58.50
2022-12-12T15:07:34.445Z,59.00
2022-12-12T15:10:01.497Z,59.02
2022-12-12T15:12:42.734Z,58.96
2022-12-12T15:15:26.571Z,58.67
2022-12-12T15:17:55.554Z,59.04
2022-12-12T15:20:25.848Z,59.09
2022-12-12T15:22:58.059Z,58.90
2022-12-12T15:25:31.331Z,58.83
2022-12-12T15:27:58.909Z,59.21
2022-12-12T15:30:38.853Z,59.07
2022-12-12T15:33:08.324Z,59.51
2022-12-12T15:35:34.962Z,59.55
2022-12-12T15:38:04.295Z,59.36
2022-12-12T15:40:32.290Z,59.62
2022-12-12T15:42:59.929Z,59.01
2022-12-12T15:45:34.901Z,59.34
2022-12-12T15:48:02.929Z,59.71
2022-12-12T15:50:42.161Z,59.62
2022-12-12T15:53:29.756Z,59.85
2022-12-12T15:56:00.575Z,60.06
2022-12-12T15:59:07.568Z,59.79
2022-12-12T16:01:34.197Z,59.98
2022-12-12T16:04:01.907Z,60.08
2022-12-12T16:06:34.009Z,60.04
2022-12-12T16:09:02.327Z,60.19
2022-12-12T16:11:46.056Z,60.12
2022-12-12T16:14:39.089Z,60.09
2022-12-12T16:17:21.173Z,59.97
2022-12-12T16:20:06.888Z,60.16
2022-12-12T16:22:37.116Z,60.25
2022-12-12T16:25:15.666Z,60.37
2022-12-12T16:27:42.326Z,60.39
2022-12-12T16:30:12.693Z,60.51
2022-12-12T16:32:40.052Z,60.59
2022-12-12T16:35:06.814Z,60.60
2022-12-12T16:37:33.669Z,60.53
2022-12-12T16:40:00.215Z,60.56
2022-12-12T16:42:28.389Z,60.33
2022-12-12T16:44:54.854Z,60.25
2022-12-12T16:47:23.979Z,60.21
2022-12-12T16:49:51.134Z,60.28
2022-12-12T16:52:20.634Z,60.19
2022-12-12T16:54:53.060Z,60.50
2022-12-12T16:57:21.650Z,60.74
2022-12-12T16:59:48.124Z,60.62
2022-12-12T17:02:23.146Z,59.90
2022-12-12T17:04:50.919Z,60.00
2022-12-12T17:07:18.162Z,60.13
2022-12-12T17:09:44.793Z,60.25
2022-12-12T17:12:11.316Z,60.08
2022-12-12T17:14:37.869Z,60.24
2022-12-12T17:17:05.031Z,60.32
2022-12-12T17:19:31.964Z,60.73
2022-12-12T17:21:58.529Z,60.72
2022-12-12T17:24:25.252Z,61.04
2022-12-12T17:26:51.955Z,61.04
2022-12-12T17:29:18.523Z,60.95
2022-12-12T17:31:45.018Z,61.00
2022-12-12T17:34:11.575Z,61.27
2022-12-12T17:36:38.434Z,61.36
2022-12-12T17:39:05.367Z,61.41
2022-12-12T17:41:31.828Z,61.17
2022-12-12T17:43:58.337Z,61.36
2022-12-12T17:46:25.837Z,61.33
2022-12-12T17:48:52.481Z,61.36
2022-12-12T17:51:21.656Z,61.34
2022-12-12T17:53:48.265Z,61.46
2022-12-12T17:56:16.902Z,61.38
2022-12-12T17:58:45.248Z,61.45
2022-12-12T18:01:18.662Z,61.45
2022-12-12T18:03:45.598Z,61.51
2022-12-12T18:06:13.719Z,61.59
2022-12-12T18:08:41.124Z,61.45
2022-12-12T18:11:10.014Z,61.63
2022-12-12T18:13:37.334Z,61.50
2022-12-12T18:16:04.624Z,61.70
2022-12-12T18:18:31.802Z,61.52
2022-12-12T18:21:06.548Z,61.58
2022-12-12T18:23:34.094Z,61.56
2022-12-12T18:26:06.422Z,61.31
2022-12-12T18:28:33.738Z,61.45
2022-12-12T18:31:00.468Z,61.56
2022-12-12T18:33:27.053Z,61.58
2022-12-12T18:36:01.058Z,61.20
2022-12-12T18:38:27.562Z,61.48
2022-12-12T18:40:54.209Z,61.50
2022-12-12T18:43:20.763Z,61.46
2022-12-12T18:45:47.324Z,61.67
2022-12-12T18:48:13.923Z,61.49
2022-12-12T18:50:40.466Z,61.50
2022-12-12T18:53:06.990Z,61.62
2022-12-12T18:55:33.487Z,61.46
2022-12-12T18:57:59.983Z,61.43
2022-12-12T19:00:27.186Z,61.57
2022-12-12T19:02:56.177Z,61.59
2022-12-12T19:05:22.796Z,61.65
2022-12-12T19:07:49.351Z,61.63
2022-12-12T19:10:16.574Z,61.51
2022-12-12T19:12:43.224Z,61.48
2022-12-12T19:15:18.158Z,61.63
2022-12-12T19:17:44.838Z,61.23
2022-12-12T19:20:11.652Z,61.18
2022-12-12T19:22:46.645Z,61.34
2022-12-12T19:25:15.180Z,61.42
2022-12-12T19:27:41.943Z,61.43
2022-12-12T19:30:09.688Z,61.40
2022-12-12T19:32:36.352Z,61.38
2022-12-12T19:35:02.933Z,61.43
2022-12-12T19:37:29.642Z,61.47
2022-12-12T19:39:56.116Z,61.42
2022-12-12T19:42:23.002Z,61.48
2022-12-12T19:44:49.523Z,61.58
2022-12-12T19:47:16.029Z,61.35
2022-12-12T19:49:42.536Z,61.67
2022-12-12T19:52:13.861Z,61.67
2022-12-12T19:54:41.045Z,61.63
2022-12-12T19:57:07.586Z,61.39
2022-12-12T19:59:34.047Z,61.47
2022-12-12T20:02:00.519Z,61.48
2022-12-12T20:04:26.974Z,61.35
2022-12-12T20:06:53.437Z,61.37
2022-12-12T20:09:22.885Z,61.35
2022-12-12T20:11:50.448Z,61.47
2022-12-12T20:14:22.290Z,61.54
2022-12-12T20:16:49.275Z,61.73
2022-12-12T20:19:16.842Z,61.59
2022-12-12T20:22:02.037Z,61.71
2022-12-12T20:24:29.823Z,61.76
2022-12-12T20:26:56.697Z,61.74
2022-12-12T20:29:23.183Z,61.80
2022-12-12T20:31:49.809Z,61.86
2022-12-12T20:34:18.283Z,62.00
2022-12-12T20:36:45.253Z,62.01
2022-12-12T20:39:14.901Z,61.91
2022-12-12T20:41:42.550Z,61.73
2022-12-12T20:44:10.635Z,61.71
2022-12-12T20:46:39.648Z,61.66
2022-12-12T20:49:09.273Z,61.88
2022-12-12T20:54:23.947Z,62.09
2022-12-12T20:56:50.949Z,61.92
2022-12-12T20:59:17.448Z,61.87
2022-12-12T21:01:44.005Z,61.80
2022-12-12T21:04:10.628Z,61.83
2022-12-12T21:06:40.255Z,61.92
2022-12-12T21:09:10.135Z,61.95
2022-12-12T21:11:38.138Z,61.92
2022-12-12T21:14:04.755Z,61.96
2022-12-12T21:16:34.183Z,61.70
2022-12-12T21:19:05.691Z,61.89
2022-12-12T21:21:32.544Z,61.74
2022-12-12T21:23:59.770Z,61.87
2022-12-12T21:26:29.548Z,61.88
2022-12-12T21:28:57.305Z,61.84
2022-12-12T21:31:25.470Z,61.95
2022-12-12T21:33:52.419Z,61.75
2022-12-12T21:36:21.312Z,61.69
2022-12-12T21:38:48.609Z,61.54
2022-12-12T21:41:18.870Z,61.47
2022-12-12T21:43:45.834Z,61.52
2022-12-12T21:46:24.285Z,61.72
2022-12-12T21:48:51.950Z,61.65
2022-12-12T21:51:18.450Z,61.72
2022-12-12T21:53:45.177Z,61.67
2022-12-12T21:56:16.697Z,61.69
2022-12-12T21:58:45.685Z,61.53
2022-12-12T22:01:14.812Z,61.42
2022-12-12T22:03:42.061Z,61.41
2022-12-12T22:06:14.530Z,61.53
2022-12-12T22:08:41.905Z,61.50
2022-12-12T22:11:09.549Z,61.64
2022-12-12T22:13:40.129Z,61.65
2022-12-12T22:16:18.539Z,61.54
2022-12-12T22:18:50.042Z,61.27
2022-12-12T22:21:20.454Z,61.28
2022-12-12T22:23:49.104Z,61.21
2022-12-12T22:26:18.780Z,61.17
2022-12-12T22:28:45.252Z,61.08
2022-12-12T22:31:11.807Z,61.10
2022-12-12T22:33:38.475Z,61.08
2022-12-12T22:36:07.309Z,61.08
2022-12-12T22:38:37.979Z,60.85
2022-12-12T22:41:06.869Z,60.92
2022-12-12T22:43:35.351Z,60.76
2022-12-12T22:46:07.202Z,60.90
2022-12-12T22:48:34.769Z,60.86
2022-12-12T22:51:22.601Z,60.32
2022-12-12T22:53:49.211Z,60.83
2022-12-12T22:56:16.468Z,60.77
2022-12-12T22:58:43.036Z,60.76
2022-12-12T23:01:12.902Z,60.76
2022-12-12T23:03:39.599Z,60.78
2022-12-12T23:06:14.917Z,60.51
2022-12-12T23:08:43.053Z,60.88
2022-12-12T23:11:14.963Z,60.72
2022-12-12T23:13:43.033Z,60.89
2022-12-12T23:16:12.213Z,60.74
2022-12-12T23:18:40.502Z,60.63
2022-12-12T23:21:16.329Z,60.72
2022-12-12T23:23:43.797Z,60.70
2022-12-12T23:26:13.564Z,60.81
2022-12-12T23:28:40.346Z,60.92
2022-12-12T23:31:09.153Z,60.93
2022-12-12T23:33:36.352Z,60.89
2022-12-12T23:36:03.540Z,61.10
2022-12-12T23:38:30.102Z,61.00
2022-12-12T23:40:56.612Z,60.98
2022-12-12T23:43:24.695Z,61.20
2022-12-12T23:45:51.271Z,61.28
2022-12-12T23:48:17.816Z,61.43
2022-12-12T23:50:44.286Z,61.45
2022-12-12T23:53:11.845Z,61.51
2022-12-12T23:55:38.381Z,61.44
2022-12-12T23:58:05.028Z,61.50
